Time;durP1;ratioP1;P1;durP2;ratioP2;P2;SDS_P1;SDS_P2;PMS_P1;PMS_P2;Temp;Humidity;BMP_temperature;BMP_pressure;BME280_temperature;BME280_humidity;BME280_pressure;Samples;Min_cycle;Max_cycle;Signal;HPM_P1;HPM_P2
2022/06/09 00:00:30;;;;;;;;;;;20.50;66.20;;;19.81;62.00;95643.88;4127120;34;19904;-85
2022/06/09 00:03:02;;;;;;;;;;;20.50;66.30;;;19.78;61.78;95644.56;4149570;34;19911;-86
2022/06/09 00:05:31;;;;;;;;;;;20.50;66.20;;;19.81;61.60;95643.88;4151172;34;20147;-87
2022/06/09 00:08:00;;;;;;;;;;;20.50;66.20;;;19.81;61.78;95643.06;4173062;34;20268;-86
2022/06/09 00:10:31;;;;;;;;;;;20.50;66.20;;;19.80;61.61;95636.69;4149680;34;19903;-86
2022/06/09 00:13:00;;;;;;;;;;;20.40;66.20;;;19.80;61.85;95638.66;4174198;33;20070;-85
2022/06/09 00:15:30;;;;;;;;;;;20.50;66.20;;;19.80;61.71;95638.66;4154636;34;19903;-86
2022/06/09 00:17:58;;;;;;;;;;;20.40;66.10;;;19.78;61.93;95628.69;4177491;34;20243;-86
2022/06/09 00:20:27;;;;;;;;;;;20.40;66.00;;;19.78;61.78;95620.38;4176996;34;20133;-86
2022/06/09 00:22:56;;;;;;;;;;;20.40;66.10;;;19.78;61.81;95627.91;4177443;34;19925;-86
2022/06/09 00:25:25;;;;;;;;;;;20.40;66.00;;;19.76;61.96;95624.66;4200601;33;19903;-84
2022/06/09 00:27:54;;;;;;;;;;;20.40;66.00;;;19.77;61.86;95623.50;4177307;34;20034;-85
2022/06/09 00:30:22;;;;;;;;;;;20.40;66.00;;;19.76;61.62;95624.66;4177088;34;19903;-85
2022/06/09 00:32:53;;;;;;;;;;;20.40;66.00;;;19.74;61.56;95621.41;4154433;34;19903;-85
2022/06/09 00:35:22;;;;;;;;;;;20.40;66.10;;;19.75;61.63;95626.59;4177304;34;19907;-84
2022/06/09 00:37:51;;;;;;;;;;;20.40;66.00;;;19.75;61.99;95623.03;4154420;34;19910;-84
2022/06/09 00:40:21;;;;;;;;;;;20.40;66.10;;;19.73;61.81;95620.59;4154105;34;20395;-87
2022/06/09 00:42:49;;;;;;;;;;;20.40;66.10;;;19.73;61.95;95615.06;4177405;34;20161;-85
2022/06/09 00:45:27;;;;;;;;;;;20.40;66.10;;;19.73;61.58;95622.56;4154378;34;19965;-85
2022/06/09 00:48:03;;;;;;;;;;;20.40;66.10;;;19.73;61.83;95625.31;4177188;33;20096;-86
2022/06/09 00:50:32;;;;;;;;;;;20.40;66.00;;;19.73;61.38;95619.78;4199876;33;19904;-86
2022/06/09 00:53:04;;;;;;;;;;;20.40;66.00;;;19.72;61.63;95626.47;4177335;34;20169;-86
2022/06/09 00:55:34;;;;;;;;;;;20.40;65.90;;;19.68;61.73;95620.81;4177140;34;19917;-85
2022/06/09 00:58:07;;;;;;;;;;;20.40;65.90;;;19.70;61.71;95621.28;4177193;34;20530;-86
2022/06/09 01:00:42;;;;;;;;;;;20.40;66.00;;;19.70;61.78;95626.84;4177642;34;20047;-85
2022/06/09 01:03:12;;;;;;;;;;;20.30;66.00;;;19.70;61.71;95620.47;4154278;34;20163;-85
2022/06/09 01:05:41;;;;;;;;;;;20.40;66.20;;;19.69;61.73;95624.38;4154353;34;19903;-85
2022/06/09 01:08:10;;;;;;;;;;;20.30;66.00;;;19.67;61.60;95618.38;4177063;34;19981;-85
2022/06/09 01:10:39;;;;;;;;;;;20.30;66.00;;;19.69;61.81;95624.38;4199031;33;19903;-85
2022/06/09 01:13:08;;;;;;;;;;;20.30;66.00;;;19.67;61.71;95623.94;4177385;34;19910;-86
2022/06/09 01:15:44;;;;;;;;;;;20.30;66.00;;;19.67;61.54;95621.97;4181573;34;20088;-85
2022/06/09 01:18:27;;;;;;;;;;;20.30;66.00;;;19.68;61.59;95622.78;4204786;33;19910;-85
2022/06/09 01:21:03;;;;;;;;;;;20.30;66.00;;;19.67;61.44;95623.94;4178139;34;20288;-86
2022/06/09 01:24:11;;;;;;;;;;;20.30;65.90;;;19.66;61.60;95614.78;4154061;34;19903;-85
2022/06/09 01:27:17;;;;;;;;;;;20.30;66.00;;;19.67;61.60;95621.16;4121780;34;19904;-86
2022/06/09 01:29:49;;;;;;;;;;;20.30;66.00;;;19.65;61.68;95607.59;4153407;34;20091;-85
2022/06/09 01:32:24;;;;;;;;;;;20.30;65.90;;;19.66;61.74;95608.44;4131158;34;20088;-85
2022/06/09 01:35:02;;;;;;;;;;;20.30;65.90;;;19.65;61.50;95617.91;4153904;34;19904;-85
2022/06/09 01:37:33;;;;;;;;;;;20.30;66.00;;;19.65;61.46;95615.13;4153825;34;20370;-85
2022/06/09 01:40:04;;;;;;;;;;;20.30;65.90;;;19.63;61.70;95612.69;4154372;34;20171;-84
2022/06/09 01:42:34;;;;;;;;;;;20.30;66.00;;;19.63;61.70;95618.25;4153755;34;20238;-85
2022/06/09 01:45:08;;;;;;;;;;;20.30;66.00;;;19.62;61.58;95614.66;4153795;34;20075;-85
2022/06/09 01:47:51;;;;;;;;;;;20.30;66.00;;;19.63;61.76;95613.50;4154611;34;19904;-85
2022/06/09 01:50:30;;;;;;;;;;;20.30;66.00;;;19.62;61.61;95623.00;4153419;34;19903;-86
2022/06/09 01:53:00;;;;;;;;;;;20.30;66.00;;;19.62;61.52;95613.88;4153558;34;20147;-84
2022/06/09 01:55:28;;;;;;;;;;;20.30;66.00;;;19.61;61.55;95612.25;4176658;34;20191;-85
2022/06/09 01:57:59;;;;;;;;;;;20.30;65.90;;;19.61;61.73;95618.59;4154577;34;19911;-85
2022/06/09 02:00:28;;;;;;;;;;;20.30;66.00;;;19.58;61.70;95618.47;4153526;34;19911;-85
2022/06/09 02:03:02;;;;;;;;;;;20.30;66.00;;;19.59;61.38;95618.13;4153684;34;19911;-85
2022/06/09 02:05:34;;;;;;;;;;;20.30;65.90;;;19.58;61.68;95619.28;4153791;34;20094;-84
2022/06/09 02:08:05;;;;;;;;;;;20.30;65.90;;;19.59;61.74;95626.47;4153736;34;20414;-84
2022/06/09 02:10:35;;;;;;;;;;;20.20;65.80;;;19.59;61.45;95634.78;4130620;34;19904;-85
2022/06/09 02:13:06;;;;;;;;;;;20.30;65.90;;;19.58;61.30;95635.13;4131156;34;20067;-85
2022/06/09 02:15:42;;;;;;;;;;;20.20;65.80;;;19.57;61.35;95634.31;4130959;34;19903;-85
2022/06/09 02:18:14;;;;;;;;;;;20.30;65.90;;;19.56;61.85;95634.66;4153746;34;19997;-85
2022/06/09 02:20:50;;;;;;;;;;;20.20;65.80;;;19.56;61.59;95629.91;4130522;34;19930;-85
2022/06/09 02:23:19;;;;;;;;;;;20.20;65.80;;;19.56;61.54;95635.47;4153565;34;19992;-85
2022/06/09 02:25:47;;;;;;;;;;;20.20;65.90;;;19.54;61.47;95635.03;4151519;34;19904;-85
2022/06/09 02:28:16;;;;;;;;;;;20.20;65.70;;;19.54;61.69;95637.81;4151331;34;20075;-85
2022/06/09 02:30:45;;;;;;;;;;;20.20;65.70;;;19.54;61.25;95637.81;4150862;34;19975;-85
2022/06/09 02:33:15;;;;;;;;;;;20.20;65.80;;;19.54;61.62;95629.47;4152057;34;19912;-84
2022/06/09 02:35:44;;;;;;;;;;;20.20;65.90;;;19.53;61.39;95644.50;4128475;34;20111;-85
2022/06/09 02:38:13;;;;;;;;;;;20.20;65.70;;;19.53;61.49;95638.94;4177675;34;20277;-85
2022/06/09 02:40:41;;;;;;;;;;;20.20;65.80;;;19.53;61.37;95647.28;4177291;34;19911;-84
2022/06/09 02:43:10;;;;;;;;;;;20.20;65.70;;;19.53;61.38;95643.69;4178545;34;20127;-84
2022/06/09 02:45:39;;;;;;;;;;;20.20;65.80;;;19.52;61.52;95633.72;4178517;34;20018;-84
2022/06/09 02:48:08;;;;;;;;;;;20.20;65.70;;;19.52;61.53;95644.81;4178597;34;19958;-84
2022/06/09 02:50:38;;;;;;;;;;;20.20;65.70;;;19.52;61.36;95645.66;4178141;34;20152;-85
2022/06/09 02:53:07;;;;;;;;;;;20.20;65.70;;;19.51;61.45;95641.25;4155678;34;19910;-85
2022/06/09 02:55:36;;;;;;;;;;;20.20;65.80;;;19.51;61.37;95652.34;4178525;34;20103;-84
2022/06/09 02:58:05;;;;;;;;;;;20.20;65.90;;;19.51;61.43;95651.53;4201545;33;20399;-85
2022/06/09 03:00:34;;;;;;;;;;;20.20;65.80;;;19.50;61.49;95656.28;4177974;34;19903;-84
2022/06/09 03:03:05;;;;;;;;;;;20.20;65.80;;;19.51;61.52;95662.63;4178185;34;19911;-85
2022/06/09 03:05:36;;;;;;;;;;;20.20;65.90;;;19.50;61.44;95661.84;4178533;34;19979;-84
2022/06/09 03:08:07;;;;;;;;;;;20.20;65.70;;;19.51;61.39;95669.00;4178208;34;20161;-84
2022/06/09 03:10:36;;;;;;;;;;;20.20;65.80;;;19.49;61.35;95660.22;4155068;34;19903;-84
2022/06/09 03:13:06;;;;;;;;;;;20.20;65.70;;;19.50;61.50;95661.84;4155164;34;19910;-84
2022/06/09 03:15:35;;;;;;;;;;;20.20;65.70;;;19.50;61.37;95664.63;4155400;34;19903;-85
2022/06/09 03:18:04;;;;;;;;;;;20.10;65.60;;;19.50;61.31;95664.63;4155235;34;19903;-84
2022/06/09 03:20:34;;;;;;;;;;;20.20;65.60;;;19.50;61.34;95658.22;4177741;34;19993;-85
2022/06/09 03:23:05;;;;;;;;;;;20.20;65.60;;;19.49;61.35;95654.66;4178100;34;20094;-84
2022/06/09 03:25:33;;;;;;;;;;;20.20;65.50;;;19.50;61.40;95653.50;4178094;34;20024;-85
2022/06/09 03:28:02;;;;;;;;;;;20.20;65.60;;;19.50;61.19;95647.97;4162490;34;19903;-85
2022/06/09 03:30:31;;;;;;;;;;;20.20;65.50;;;19.51;61.06;95651.53;4173066;34;20172;-85
2022/06/09 03:33:00;;;;;;;;;;;20.20;65.40;;;19.51;60.67;95657.91;4173486;34;20134;-85
2022/06/09 03:35:29;;;;;;;;;;;20.20;66.20;;;19.53;60.94;95652.00;4127942;34;19904;-84
2022/06/09 03:37:58;;;;;;;;;;;20.20;65.20;;;19.53;60.68;95644.50;4127096;34;19903;-85
2022/06/09 03:40:29;;;;;;;;;;;20.20;65.10;;;19.55;61.00;95653.31;4149985;34;19904;-86
2022/06/09 03:42:57;;;;;;;;;;;20.20;65.00;;;19.56;60.57;95649.34;4149972;34;20112;-85
2022/06/09 03:45:26;;;;;;;;;;;20.20;64.80;;;19.57;60.40;95650.97;4150495;34;20382;-84
2022/06/09 03:47:55;;;;;;;;;;;20.30;64.80;;;19.58;60.68;95647.03;4151219;34;19922;-85
2022/06/09 03:50:27;;;;;;;;;;;20.30;64.60;;;19.60;60.07;95643.94;4149945;34;20033;-85
2022/06/09 03:52:55;;;;;;;;;;;20.30;64.50;;;19.60;60.30;95644.75;4150301;34;19904;-86
2022/06/09 03:55:24;;;;;;;;;;;20.30;64.40;;;19.62;60.59;95648.00;4150335;34;19904;-83
2022/06/09 03:58:02;;;;;;;;;;;20.30;64.70;;;19.63;60.78;95641.28;4127630;34;20153;-85
2022/06/09 04:00:40;;;;;;;;;;;20.30;64.90;;;19.65;61.19;95640.13;4150084;34;19935;-84
2022/06/09 04:03:14;;;;;;;;;;;20.30;65.40;;;19.66;61.46;95642.56;4150304;34;20110;-85
2022/06/09 04:05:45;;;;;;;;;;;20.30;65.70;;;19.69;61.45;95635.50;4173124;34;19903;-85
2022/06/09 04:08:15;;;;;;;;;;;20.40;65.80;;;19.69;61.24;95641.03;4173166;34;19904;-84
2022/06/09 04:10:58;;;;;;;;;;;20.40;65.70;;;19.70;61.67;95639.91;4149837;34;19911;-85
2022/06/09 04:13:31;;;;;;;;;;;20.40;65.90;;;19.72;61.80;95632.03;4127542;34;20165;-85
2022/06/09 04:16:03;;;;;;;;;;;20.40;66.00;;;19.73;61.71;95630.88;4127570;34;20170;-85
2022/06/09 04:18:35;;;;;;;;;;;20.40;66.00;;;19.75;61.81;95628.56;4127547;34;19910;-86
2022/06/09 04:21:09;;;;;;;;;;;20.40;66.00;;;19.75;61.47;95634.94;4127205;34;20048;-86
2022/06/09 04:23:38;;;;;;;;;;;20.50;66.00;;;19.77;61.69;95629.06;4149998;34;19904;-85
2022/06/09 04:26:16;;;;;;;;;;;20.50;66.20;;;19.78;61.87;95633.44;4127447;34;19911;-86
2022/06/09 04:29:00;;;;;;;;;;;20.50;66.20;;;19.78;61.72;95628.69;4172811;34;20060;-86
2022/06/09 04:31:36;;;;;;;;;;;20.50;66.20;;;19.81;61.67;95624.44;4149201;34;19904;-85
2022/06/09 04:34:15;;;;;;;;;;;20.50;66.20;;;19.81;61.65;95627.22;4126983;34;19911;-84
2022/06/09 04:36:46;;;;;;;;;;;20.50;66.20;;;19.83;61.76;95622.09;4149956;34;19974;-85
2022/06/09 04:39:16;;;;;;;;;;;20.50;66.00;;;19.84;61.97;95615.38;4126502;34;20012;-85
2022/06/09 04:41:45;;;;;;;;;;;20.50;66.20;;;19.86;61.80;95624.22;4149557;34;19903;-85
2022/06/09 04:44:32;;;;;;;;;;;20.50;66.30;;;19.89;62.00;95617.16;4149769;34;20143;-85
2022/06/09 04:47:12;;;;;;;;;;;20.60;66.40;;;19.90;62.27;95619.59;4171770;34;20104;-85
2022/06/09 04:49:44;;;;;;;;;;;20.60;66.50;;;19.92;62.24;95610.91;4149541;34;20111;-85
2022/06/09 04:52:14;;;;;;;;;;;20.60;66.60;;;19.94;62.53;95614.16;4126133;34;19910;-85
2022/06/09 04:54:50;;;;;;;;;;;20.60;66.70;;;19.97;62.05;95612.66;4127204;34;19910;-85
2022/06/09 04:57:22;;;;;;;;;;;20.60;66.50;;;19.98;62.08;95611.50;4149196;34;19904;-84
2022/06/09 04:59:54;;;;;;;;;;;20.70;66.40;;;20.00;61.79;95611.97;4149524;34;19904;-85
2022/06/09 05:02:22;;;;;;;;;;;20.70;66.40;;;20.02;62.21;95615.22;4172682;34;20590;-87
2022/06/09 05:04:51;;;;;;;;;;;20.70;66.50;;;20.04;61.71;95618.47;4127102;34;19912;-85
2022/06/09 05:07:29;;;;;;;;;;;20.70;66.20;;;20.06;61.64;95611.41;4172355;34;20216;-86
2022/06/09 05:09:58;;;;;;;;;;;20.80;66.10;;;20.09;61.59;95612.66;4171972;34;20047;-86
2022/06/09 05:12:27;;;;;;;;;;;20.80;66.20;;;20.09;61.99;95604.31;4127160;34;20138;-86
2022/06/09 05:14:57;;;;;;;;;;;20.80;66.10;;;20.12;61.79;95617.53;4149505;34;19911;-86
2022/06/09 05:17:26;;;;;;;;;;;20.80;66.00;;;20.12;61.83;95617.53;4149447;34;19903;-86
2022/06/09 05:19:54;;;;;;;;;;;20.80;66.00;;;20.15;61.73;95625.19;4171998;34;19904;-89
2022/06/09 05:22:23;;;;;;;;;;;20.80;66.00;;;20.15;61.68;95630.75;4149404;34;19910;-86
2022/06/09 05:24:52;;;;;;;;;;;20.80;65.70;;;20.17;61.69;95622.03;4126836;34;19903;-86
2022/06/09 05:27:21;;;;;;;;;;;20.80;65.80;;;20.17;61.49;95616.47;4172145;34;20127;-86
2022/06/09 05:29:50;;;;;;;;;;;20.80;65.80;;;20.17;61.53;95625.66;4149031;34;19911;-87
2022/06/09 05:32:20;;;;;;;;;;;20.80;65.60;;;20.17;61.64;95622.03;4150313;34;19910;-84
2022/06/09 05:34:59;;;;;;;;;;;20.80;65.60;;;20.18;61.33;95620.88;4149290;34;19903;-86
2022/06/09 05:44:50;;;;;;;;;;;20.80;65.60;;;20.18;61.75;95627.28;4149325;34;19903;-86
2022/06/09 05:45:50;;;;;;;;;;;20.90;66.10;;;20.19;61.67;95617.78;4150896;34;20130;-85
2022/06/09 05:48:21;;;;;;;;;;;20.90;65.90;;;20.20;61.84;95627.72;4149183;34;19904;-85
2022/06/09 05:50:50;;;;;;;;;;;20.90;65.90;;;20.21;61.89;95620.19;4148773;34;19903;-86
2022/06/09 05:53:19;;;;;;;;;;;20.90;66.10;;;20.22;61.49;95619.84;4149176;34;19911;-86
2022/06/09 05:55:48;;;;;;;;;;;20.90;65.90;;;20.25;61.74;95621.13;4149034;34;20292;-86
2022/06/09 05:58:17;;;;;;;;;;;20.90;65.90;;;20.27;61.85;95616.00;4149249;34;19911;-86
2022/06/09 06:00:46;;;;;;;;;;;20.90;66.00;;;20.27;61.52;95616.00;4150444;34;20154;-86
2022/06/09 06:03:15;;;;;;;;;;;21.00;65.80;;;20.30;61.54;95617.31;4128927;34;19903;-86
2022/06/09 06:08:31;;;;;;;;;;;21.00;65.90;;;20.34;61.45;95612.66;4151433;34;19904;-85
2022/06/09 06:11:00;;;;;;;;;;;21.00;65.90;;;20.36;61.47;95613.13;4150858;34;20246;-85
2022/06/09 06:13:29;;;;;;;;;;;21.00;65.80;;;20.40;61.89;95619.59;4129136;34;20047;-85
2022/06/09 06:15:58;;;;;;;;;;;21.10;66.00;;;20.41;61.82;95614.84;4151392;34;19907;-85
2022/06/09 06:18:28;;;;;;;;;;;21.10;65.80;;;20.43;61.61;95612.53;4174382;34;20304;-86
2022/06/09 06:20:59;;;;;;;;;;;21.10;65.80;;;20.43;61.58;95613.34;4150966;34;19911;-86
2022/06/09 06:23:28;;;;;;;;;;;21.10;65.70;;;20.44;61.72;95608.59;4151463;34;19910;-85
2022/06/09 06:25:57;;;;;;;;;;;21.10;65.80;;;20.46;61.89;95609.06;4128531;34;19904;-85
2022/06/09 06:28:26;;;;;;;;;;;21.10;66.00;;;20.47;61.72;95605.13;4151384;34;19904;-85
2022/06/09 06:30:55;;;;;;;;;;;21.10;65.90;;;20.48;61.83;95601.19;4150801;34;19903;-86
2022/06/09 06:33:23;;;;;;;;;;;21.20;65.90;;;20.48;61.68;95599.19;4151383;34;19903;-85
2022/06/09 06:35:52;;;;;;;;;;;21.10;65.90;;;20.49;61.71;95589.69;4128513;34;20067;-86
2022/06/09 06:38:22;;;;;;;;;;;21.20;65.70;;;20.52;61.76;95594.56;4151296;34;20131;-85
2022/06/09 06:40:54;;;;;;;;;;;21.20;66.20;;;20.52;61.86;95594.56;4150673;34;20253;-85
2022/06/09 06:43:23;;;;;;;;;;;21.20;66.00;;;20.56;61.55;95589.13;4151136;34;19911;-84
2022/06/09 06:45:52;;;;;;;;;;;21.20;65.70;;;20.57;61.27;95578.81;4151069;34;20023;-85
2022/06/09 06:48:21;;;;;;;;;;;21.20;65.60;;;20.57;61.25;95568.50;4151162;34;19903;-85
2022/06/09 06:50:50;;;;;;;;;;;21.30;65.60;;;20.62;61.39;95573.00;4128075;34;19911;-87
2022/06/09 06:53:23;;;;;;;;;;;21.30;65.60;;;20.64;61.43;95579.84;4173894;34;19913;-84
2022/06/09 06:55:52;;;;;;;;;;;21.30;65.60;;;20.66;61.39;95580.28;4128421;34;20227;-86
2022/06/09 06:58:21;;;;;;;;;;;21.30;65.60;;;20.68;61.11;95579.94;4150931;34;19904;-88
2022/06/09 07:00:50;;;;;;;;;;;21.40;65.50;;;20.70;61.15;95583.19;4134672;34;19910;-85
2022/06/09 07:03:19;;;;;;;;;;;21.40;65.50;;;20.73;61.11;95582.47;4155752;34;20107;-85
2022/06/09 07:05:48;;;;;;;;;;;21.40;65.30;;;20.76;60.54;95587.34;4149979;34;20073;-86
2022/06/09 07:08:17;;;;;;;;;;;21.40;65.30;;;20.79;60.89;95577.50;4151011;34;19903;-85
2022/06/09 07:10:47;;;;;;;;;;;21.40;65.20;;;20.82;61.14;95579.56;4131757;34;20384;-84
2022/06/09 07:13:16;;;;;;;;;;;21.50;65.30;;;20.83;61.13;95576.47;4155471;34;19903;-85
2022/06/09 07:15:45;;;;;;;;;;;21.40;65.20;;;20.84;60.88;95575.28;4201313;33;20100;-85
2022/06/09 07:18:13;;;;;;;;;;;21.50;65.10;;;20.88;60.84;95574.56;4155526;34;20108;-86
2022/06/09 07:20:43;;;;;;;;;;;21.50;65.10;;;20.91;60.73;95571.09;4177667;34;20295;-85
2022/06/09 07:23:12;;;;;;;;;;;21.50;64.90;;;20.92;60.72;95575.50;4178161;34;20013;-85
2022/06/09 07:25:40;;;;;;;;;;;21.50;64.80;;;20.92;60.64;95573.50;4178124;34;19903;-85
2022/06/09 07:28:10;;;;;;;;;;;21.50;64.80;;;20.90;60.69;95572.25;4155198;34;19999;-86
2022/06/09 07:30:39;;;;;;;;;;;21.60;64.80;;;20.88;60.96;95574.56;4177617;34;19910;-86
2022/06/09 07:33:08;;;;;;;;;;;21.50;64.90;;;20.84;61.00;95578.06;4178311;34;20161;-86
2022/06/09 07:35:37;;;;;;;;;;;21.50;65.10;;;20.81;61.10;95567.66;4200985;33;19958;-84
2022/06/09 07:38:08;;;;;;;;;;;21.50;65.20;;;20.79;61.16;95578.31;4178115;34;19903;-87
2022/06/09 07:40:39;;;;;;;;;;;21.40;65.30;;;20.77;61.38;95572.28;4177636;34;19910;-86
2022/06/09 07:43:08;;;;;;;;;;;21.40;65.40;;;20.76;61.33;95581.00;4178011;34;20141;-86
2022/06/09 07:45:38;;;;;;;;;;;21.40;65.50;;;20.72;61.60;95583.63;4155143;34;19945;-86
2022/06/09 07:48:08;;;;;;;;;;;21.40;65.70;;;20.69;61.26;95581.56;4178043;34;19910;-86
2022/06/09 07:50:37;;;;;;;;;;;21.40;65.70;;;20.69;61.68;95581.56;4177479;34;20098;-84
2022/06/09 07:53:06;;;;;;;;;;;21.30;65.80;;;20.68;61.45;95589.09;4177868;34;20059;-86
2022/06/09 07:55:35;;;;;;;;;;;21.30;65.90;;;20.67;61.79;95583.88;4155030;34;19910;-86
2022/06/09 07:58:06;;;;;;;;;;;21.40;65.90;;;20.67;61.58;95581.09;4155060;34;19985;-86
2022/06/09 08:00:35;;;;;;;;;;;21.30;65.90;;;20.68;61.62;95583.53;4177253;34;19978;-86
2022/06/09 08:03:05;;;;;;;;;;;21.30;66.80;;;20.67;61.70;95586.66;4177899;34;19910;-86
2022/06/09 08:05:34;;;;;;;;;;;21.30;66.00;;;20.67;61.52;95589.44;4177691;34;19905;-86
2022/06/09 08:08:03;;;;;;;;;;;21.30;66.00;;;20.67;61.75;95578.31;4177680;33;19997;-86
2022/06/09 08:10:32;;;;;;;;;;;21.30;66.00;;;20.67;61.73;95587.47;4154257;34;19908;-86
2022/06/09 08:13:02;;;;;;;;;;;21.30;66.00;;;20.66;61.61;95596.97;4177930;34;19903;-86
2022/06/09 08:15:31;;;;;;;;;;;21.30;65.90;;;20.64;61.44;95590.13;4200685;33;19958;-85
2022/06/09 08:18:04;;;;;;;;;;;21.30;65.80;;;20.61;61.50;95586.09;4154763;34;19903;-86
2022/06/09 08:20:38;;;;;;;;;;;21.30;66.00;;;20.59;61.50;95595.97;4177067;34;20077;-86
2022/06/09 08:23:09;;;;;;;;;;;21.20;65.90;;;20.56;61.65;95591.88;4176992;34;19926;-87
2022/06/09 08:25:38;;;;;;;;;;;21.20;65.90;;;20.52;61.95;95586.22;4177339;34;19994;-85
2022/06/09 08:28:08;;;;;;;;;;;21.20;66.10;;;20.50;61.88;95594.09;4160767;34;20140;-86
2022/06/09 08:30:36;;;;;;;;;;;21.20;66.10;;;20.49;62.03;95592.47;4149642;34;19904;-86
2022/06/09 08:33:07;;;;;;;;;;;21.10;66.20;;;20.46;61.85;95598.75;4152959;34;19911;-86
2022/06/09 08:35:36;;;;;;;;;;;21.10;66.20;;;20.44;61.97;95595.53;4178500;34;19910;-85
2022/06/09 08:38:05;;;;;;;;;;;21.10;66.30;;;20.43;62.04;95604.19;4177224;34;19995;-86
2022/06/09 08:40:49;;;;;;;;;;;21.10;66.30;;;20.41;62.10;95599.00;4176900;34;19998;-86
2022/06/09 08:43:32;;;;;;;;;;;21.10;66.30;;;20.39;61.85;95602.13;4200765;33;20002;-85
2022/06/09 08:46:08;;;;;;;;;;;21.10;66.40;;;20.38;61.86;95596.91;4154287;34;19904;-86
2022/06/09 08:48:41;;;;;;;;;;;21.10;66.40;;;20.38;61.96;95596.91;4177410;34;19933;-86
2022/06/09 08:51:12;;;;;;;;;;;21.10;66.40;;;20.37;61.80;95595.28;4176745;34;19922;-87
2022/06/09 08:53:45;;;;;;;;;;;21.10;66.40;;;20.36;62.10;95582.53;4177222;34;19904;-85
2022/06/09 08:56:26;;;;;;;;;;;21.00;66.40;;;20.35;61.79;95592.03;4200337;33;19996;-85
2022/06/09 08:58:58;;;;;;;;;;;21.10;66.50;;;20.34;61.94;95582.06;4177278;34;20006;-85
2022/06/09 09:01:33;;;;;;;;;;;21.00;66.40;;;20.34;61.96;95585.69;4153874;34;19910;-86
2022/06/09 09:04:16;;;;;;;;;;;21.00;66.40;;;20.34;61.99;95593.19;4200411;33;20170;-86
2022/06/09 09:06:47;;;;;;;;;;;21.00;66.30;;;20.35;61.94;95594.81;4178022;34;20080;-86
2022/06/09 09:09:20;;;;;;;;;;;21.00;66.20;;;20.36;62.09;95586.16;4177223;34;19903;-86
2022/06/09 09:11:58;;;;;;;;;;;21.00;66.30;;;20.34;61.72;95582.91;4199621;33;19940;-85
2022/06/09 09:14:30;;;;;;;;;;;21.00;66.10;;;20.37;61.85;95581.38;4172573;34;20287;-85
2022/06/09 09:17:04;;;;;;;;;;;21.00;66.10;;;20.36;61.93;95579.75;4177035;34;19994;-85
2022/06/09 09:19:51;;;;;;;;;;;21.00;66.00;;;20.39;61.68;95581.84;4177050;34;19903;-86
2022/06/09 09:22:31;;;;;;;;;;;21.10;66.10;;;20.41;61.46;95579.53;4176977;34;19910;-86
2022/06/09 09:25:15;;;;;;;;;;;21.10;65.90;;;20.42;61.58;95572.81;4176920;34;19904;-86
2022/06/09 09:27:49;;;;;;;;;;;21.10;65.90;;;20.44;61.80;95573.28;4153954;34;19904;-86
2022/06/09 09:30:23;;;;;;;;;;;21.10;66.10;;;20.44;61.56;95578.84;4153588;34;19951;-87
2022/06/09 09:32:53;;;;;;;;;;;21.10;65.90;;;20.45;61.38;95555.44;4176956;34;20104;-85
2022/06/09 09:35:25;;;;;;;;;;;21.10;65.70;;;20.45;61.34;95560.16;4155307;34;19962;-86
2022/06/09 09:37:56;;;;;;;;;;;21.10;65.80;;;20.48;61.47;95571.41;4180245;34;19903;-86
2022/06/09 09:40:29;;;;;;;;;;;21.10;65.70;;;20.49;61.07;95566.66;4202225;33;20144;-85
2022/06/09 09:42:59;;;;;;;;;;;21.10;65.50;;;20.49;61.14;95564.69;4179364;34;20147;-86
2022/06/09 09:45:35;;;;;;;;;;;21.10;65.50;;;20.48;61.09;95565.84;4202588;33;19910;-86
2022/06/09 09:48:06;;;;;;;;;;;21.10;65.40;;;20.49;61.02;95561.91;4202421;33;20111;-86
2022/06/09 09:50:48;;;;;;;;;;;21.10;65.40;;;20.50;61.51;95557.16;4155954;34;19903;-87
2022/06/09 09:53:28;;;;;;;;;;;21.10;65.70;;;20.49;61.26;95556.34;4179133;34;19926;-85
2022/06/09 09:55:58;;;;;;;;;;;21.20;65.70;;;20.49;61.52;95548.00;4179159;34;19911;-86
2022/06/09 09:58:36;;;;;;;;;;;21.20;65.70;;;20.48;61.58;95546.38;4156191;34;20123;-86
2022/06/09 10:01:10;;;;;;;;;;;21.10;65.70;;;20.48;61.48;95538.03;4178657;34;19903;-87
2022/06/09 10:09:31;;;;;;;;;;;21.20;65.70;;;20.49;61.54;95522.97;4179080;34;19910;-86
2022/06/09 10:12:03;;;;;;;;;;;21.10;65.80;;;20.49;61.64;95522.19;4155799;34;20264;-86
2022/06/09 10:14:52;;;;;;;;;;;21.20;65.80;;;20.49;61.46;95520.19;4179068;34;20081;-86
2022/06/09 10:17:32;;;;;;;;;;;21.10;65.70;;;20.48;61.33;95515.78;4178924;34;20299;-87
2022/06/09 10:20:08;;;;;;;;;;;21.10;65.90;;;20.49;61.08;95517.41;4178363;34;20190;-86
2022/06/09 10:22:39;;;;;;;;;;;21.20;65.90;;;20.51;61.51;95509.53;4156047;34;20144;-86
2022/06/09 10:25:20;;;;;;;;;;;21.20;65.80;;;20.51;61.48;95509.53;4178984;34;19903;-86
2022/06/09 10:27:53;;;;;;;;;;;21.20;65.80;;;20.52;61.46;95515.91;4201821;33;20153;-86
2022/06/09 10:30:28;;;;;;;;;;;21.20;65.70;;;20.53;61.67;95510.00;4178395;34;19910;-86
2022/06/09 10:33:00;;;;;;;;;;;21.20;66.00;;;20.53;61.89;95512.78;4178897;34;20192;-86
2022/06/09 10:35:45;;;;;;;;;;;21.20;66.00;;;20.53;61.91;95518.34;4179715;34;20270;-86
2022/06/09 10:38:19;;;;;;;;;;;21.20;66.00;;;20.54;61.79;95513.56;4155868;34;20103;-86
2022/06/09 10:40:51;;;;;;;;;;;21.20;66.10;;;20.52;61.58;95505.59;4178350;34;20281;-86
2022/06/09 10:43:25;;;;;;;;;;;21.20;66.00;;;20.52;61.78;95513.94;4155846;34;20130;-85
2022/06/09 10:45:57;;;;;;;;;;;21.20;66.10;;;20.53;61.68;95518.34;4178250;34;20103;-86
2022/06/09 10:57:11;;;;;;;;;;;21.20;65.90;;;20.53;61.68;95518.34;4178432;34;20212;-87
2022/06/09 10:59:51;;;;;;;;;;;21.20;65.80;;;20.54;61.81;95519.97;4177776;34;20358;-87
2022/06/09 11:02:22;;;;;;;;;;;21.20;66.00;;;20.55;61.70;95520.75;4155583;34;20303;-87
2022/06/09 11:04:52;;;;;;;;;;;21.20;66.00;;;20.55;61.76;95515.19;4155539;34;19911;-86
2022/06/09 11:07:44;;;;;;;;;;;21.20;65.90;;;20.54;61.78;95514.41;4155467;34;20154;-87
2022/06/09 11:10:27;;;;;;;;;;;21.20;65.90;;;20.54;61.83;95516.34;4155043;34;20085;-87
2022/06/09 11:13:29;;;;;;;;;;;21.20;66.00;;;20.53;61.52;95506.38;4201623;33;20185;-86
2022/06/09 11:16:03;;;;;;;;;;;21.20;65.80;;;20.52;61.90;95502.00;4155528;34;20086;-87
2022/06/09 11:18:36;;;;;;;;;;;21.20;66.10;;;20.52;61.55;95515.91;4178220;34;19903;-86
2022/06/09 11:21:15;;;;;;;;;;;21.20;65.70;;;20.53;61.78;95509.16;4154831;34;20154;-87
2022/06/09 11:23:53;;;;;;;;;;;21.20;66.10;;;20.53;61.68;95517.50;4178207;34;20143;-87
2022/06/09 11:26:35;;;;;;;;;;;21.20;66.20;;;20.52;61.69;95525.06;4155171;34;20121;-87
2022/06/09 11:29:25;;;;;;;;;;;21.10;65.90;;;20.51;61.87;95515.09;4155234;34;20106;-87
2022/06/09 11:32:03;;;;;;;;;;;21.20;66.30;;;20.51;61.74;95509.53;4155064;34;20164;-87
2022/06/09 11:34:59;;;;;;;;;;;21.20;66.20;;;20.51;62.13;95511.53;4178082;34;20393;-87
2022/06/09 11:37:42;;;;;;;;;;;21.10;66.30;;;20.50;61.95;95510.69;4150566;34;20402;-87
2022/06/09 11:40:22;;;;;;;;;;;21.20;66.30;;;20.50;61.49;95507.91;4173061;34;20332;-88
2022/06/09 11:43:06;;;;;;;;;;;21.20;65.60;;;20.50;61.69;95502.34;4128121;34;19926;-88
2022/06/09 11:45:38;;;;;;;;;;;21.10;66.20;;;20.51;61.73;95511.53;4150614;34;20219;-86
2022/06/09 11:48:12;;;;;;;;;;;21.20;66.20;;;20.50;61.83;95501.56;4173323;34;20283;-87
2022/06/09 11:50:43;;;;;;;;;;;21.20;66.00;;;20.49;61.59;95500.72;4134785;34;20057;-86
2022/06/09 11:53:16;;;;;;;;;;;21.10;66.00;;;20.50;61.61;95496.78;4154843;34;19903;-87
2022/06/09 11:56:01;;;;;;;;;;;21.10;66.10;;;20.49;61.63;95505.50;4155036;34;19910;-87
2022/06/09 11:58:45;;;;;;;;;;;21.10;66.00;;;20.49;61.62;95503.50;4177091;34;19903;-86
2022/06/09 12:02:03;;;;;;;;;;;21.10;66.20;;;20.49;61.99;95513.84;4177527;34;20129;-86
2022/06/09 12:08:24;;;;;;;;;;;21.10;66.10;;;20.47;61.75;95502.25;4145983;34;20272;-87